createdAt,value
2023-03-02T00:01:41.216Z,31.23
2023-03-02T00:07:10.209Z,23.97
2023-03-02T00:12:33.764Z,37.10
2023-03-02T00:17:55.981Z,23.77
2023-03-02T00:23:19.208Z,31.70
2023-03-02T00:28:41.694Z,30.23
2023-03-02T00:34:04.332Z,28.07
2023-03-02T00:39:26.692Z,26.70
2023-03-02T00:44:48.957Z,29.33
2023-03-02T00:50:11.472Z,29.13
2023-03-02T00:55:34.006Z,26.17
2023-03-02T01:00:57.295Z,24.70
2023-03-02T01:06:21.670Z,24.40
2023-03-02T01:11:43.863Z,25.07
2023-03-02T01:17:07.353Z,18.47
2023-03-02T01:22:30.589Z,18.87
2023-03-02T01:27:52.872Z,20.93
2023-03-02T01:33:15.827Z,18.83
2023-03-02T01:38:38.292Z,18.53
2023-03-02T01:44:00.748Z,17.10
2023-03-02T01:49:23.192Z,12.67
2023-03-02T01:54:54.655Z,17.80
2023-03-02T02:00:29.965Z,18.87
2023-03-02T02:06:20.959Z,15.03
2023-03-02T02:11:44.450Z,14.50
2023-03-02T02:17:07.117Z,14.70
2023-03-02T02:22:39.648Z,13.27
2023-03-02T02:28:08.593Z,13.53
2023-03-02T02:33:32.502Z,14.47
2023-03-02T02:38:56.786Z,10.20
2023-03-02T02:44:20.209Z,11.40
2023-03-02T02:49:42.732Z,15.13
2023-03-02T02:55:05.653Z,11.70
2023-03-02T03:00:28.739Z,11.03
2023-03-02T03:05:51.135Z,11.40
2023-03-02T03:11:19.421Z,11.87
2023-03-02T03:16:45.832Z,10.23
2023-03-02T03:22:12.020Z,11.87
2023-03-02T03:27:34.920Z,12.93
2023-03-02T03:32:58.977Z,13.67
2023-03-02T03:38:22.217Z,15.17
2023-03-02T03:43:45.029Z,12.23
2023-03-02T03:49:07.893Z,11.00
2023-03-02T03:54:30.886Z,11.10
2023-03-02T03:59:54.012Z,9.50
2023-03-02T04:05:17.816Z,10.63
2023-03-02T04:10:41.028Z,11.70
2023-03-02T04:16:03.491Z,10.73
2023-03-02T04:21:26.462Z,13.87
2023-03-02T04:26:49.288Z,10.77
2023-03-02T04:32:14.872Z,14.63
2023-03-02T04:37:41.234Z,14.10
2023-03-02T04:43:03.582Z,15.27
2023-03-02T04:48:25.896Z,14.37
2023-03-02T04:53:48.151Z,13.43
2023-03-02T04:59:10.676Z,12.20
2023-03-02T05:04:33.264Z,20.17
2023-03-02T05:09:55.687Z,12.03
2023-03-02T05:15:18.102Z,20.03
2023-03-02T05:20:40.794Z,20.63
2023-03-02T05:26:03.239Z,9.87
2023-03-02T05:31:38.718Z,18.87
2023-03-02T05:37:03.819Z,16.37
2023-03-02T05:42:26.288Z,16.60
2023-03-02T05:47:48.925Z,12.17
2023-03-02T05:53:11.765Z,16.33
2023-03-02T05:58:34.339Z,12.73
2023-03-02T06:03:56.487Z,13.43
2023-03-02T06:09:18.772Z,15.93
2023-03-02T06:14:41.442Z,15.13
2023-03-02T06:20:10.519Z,12.90
2023-03-02T06:25:32.779Z,16.20
2023-03-02T06:30:55.273Z,15.20
2023-03-02T06:36:17.987Z,16.83
2023-03-02T06:41:40.164Z,12.77
2023-03-02T06:47:02.525Z,13.87
2023-03-02T06:52:25.215Z,16.77
2023-03-02T06:57:47.817Z,13.27
2023-03-02T07:03:10.236Z,12.23
2023-03-02T07:08:32.792Z,21.93
2023-03-02T07:13:55.240Z,19.83
2023-03-02T07:19:17.639Z,20.07
2023-03-02T07:24:40.119Z,32.83
2023-03-02T07:30:09.865Z,32.23
2023-03-02T07:35:32.469Z,33.00
2023-03-02T07:40:55.429Z,30.57
2023-03-02T07:46:18.010Z,40.40
2023-03-02T07:51:40.709Z,37.77
2023-03-02T07:57:03.285Z,41.23
2023-03-02T08:02:25.668Z,30.57
2023-03-02T08:07:48.846Z,37.57
2023-03-02T08:13:11.092Z,39.77
2023-03-02T08:18:33.933Z,41.77
2023-03-02T08:23:57.902Z,46.77
2023-03-02T08:29:20.520Z,40.90
2023-03-02T08:34:43.180Z,41.80
2023-03-02T08:40:06.016Z,44.60
2023-03-02T08:45:28.715Z,43.63
2023-03-02T08:51:02.845Z,36.70
2023-03-02T08:56:32.256Z,35.27
2023-03-02T09:01:55.112Z,32.33
2023-03-02T09:07:17.916Z,42.97
2023-03-02T09:12:40.349Z,44.37
2023-03-02T09:18:02.909Z,37.70
2023-03-02T09:23:26.800Z,40.57
2023-03-02T09:28:49.086Z,37.53
2023-03-02T09:34:11.133Z,44.73
2023-03-02T09:39:33.375Z,41.60
2023-03-02T09:45:16.881Z,45.77
2023-03-02T09:50:55.736Z,39.77
2023-03-02T09:56:19.825Z,48.40
2023-03-02T10:01:48.866Z,45.03
2023-03-02T10:07:14.486Z,42.30
2023-03-02T10:13:01.732Z,38.30
2023-03-02T10:18:38.034Z,41.60
2023-03-02T10:24:12.542Z,35.33
2023-03-02T10:29:49.581Z,49.70
2023-03-02T10:35:23.560Z,46.13
2023-03-02T10:40:47.378Z,41.47
2023-03-02T10:46:12.520Z,48.13
2023-03-02T10:51:38.199Z,48.13
2023-03-02T10:57:21.554Z,55.00
2023-03-02T11:02:59.105Z,44.53
2023-03-02T11:08:27.611Z,41.07
2023-03-02T11:13:50.180Z,42.43
2023-03-02T11:19:35.144Z,45.33
2023-03-02T11:25:01.740Z,40.27
2023-03-02T11:30:27.164Z,48.30
2023-03-02T11:36:20.344Z,43.40
2023-03-02T11:41:47.244Z,46.00
2023-03-02T11:47:14.310Z,47.87
2023-03-02T11:52:45.345Z,41.63
2023-03-02T11:58:20.274Z,40.27
2023-03-02T12:03:45.733Z,44.73
2023-03-02T12:09:42.585Z,45.33
2023-03-02T12:15:36.493Z,45.73
2023-03-02T12:21:08.956Z,42.23
2023-03-02T12:26:37.378Z,40.60
2023-03-02T12:32:18.558Z,40.53
2023-03-02T12:37:49.740Z,42.57
2023-03-02T12:43:18.029Z,33.70
2023-03-02T12:49:06.252Z,27.53
2023-03-02T12:54:34.640Z,30.23
2023-03-02T13:00:02.084Z,30.63
2023-03-02T13:05:28.550Z,34.97
2023-03-02T13:10:56.578Z,26.43
2023-03-02T13:16:37.131Z,32.53
2023-03-02T13:22:00.497Z,31.43
2023-03-02T13:27:25.056Z,29.50
2023-03-02T13:32:47.779Z,34.17
2023-03-02T13:38:19.241Z,34.83
2023-03-02T13:43:41.634Z,33.93
2023-03-02T13:49:10.639Z,33.10
2023-03-02T13:54:36.482Z,33.10
2023-03-02T14:00:01.755Z,39.57
2023-03-02T14:05:33.594Z,35.07
2023-03-02T14:10:58.552Z,31.57
2023-03-02T14:16:21.072Z,34.90
2023-03-02T14:21:43.523Z,31.57
2023-03-02T14:27:06.024Z,37.30
2023-03-02T14:32:28.573Z,35.03
2023-03-02T14:37:52.428Z,32.60
2023-03-02T14:43:15.264Z,41.30
2023-03-02T14:48:37.727Z,37.77
2023-03-02T14:54:03.546Z,38.23
2023-03-02T14:59:25.916Z,41.73
2023-03-02T15:04:48.763Z,41.87
2023-03-02T15:10:22.279Z,37.90
2023-03-02T15:15:44.990Z,48.47
2023-03-02T15:21:07.899Z,47.53
2023-03-02T15:26:30.468Z,54.67
2023-03-02T15:31:52.834Z,46.67
2023-03-02T15:37:15.514Z,46.07
2023-03-02T15:42:38.034Z,43.57
2023-03-02T15:48:00.417Z,52.47
2023-03-02T15:53:23.012Z,50.50
2023-03-02T15:58:47.354Z,44.50
2023-03-02T16:04:10.082Z,53.70
2023-03-02T16:09:32.635Z,50.53
2023-03-02T16:14:55.352Z,55.57
2023-03-02T16:20:17.722Z,46.37
2023-03-02T16:25:43.507Z,41.03
2023-03-02T16:31:15.052Z,56.30
2023-03-02T16:36:39.512Z,52.07
2023-03-02T16:42:01.816Z,50.93
2023-03-02T16:47:24.106Z,54.67
2023-03-02T16:52:46.679Z,61.40
2023-03-02T16:58:09.047Z,54.97
2023-03-02T17:03:31.832Z,69.10
2023-03-02T17:08:55.588Z,53.53
2023-03-02T17:14:18.063Z,48.13
2023-03-02T17:19:40.690Z,57.80
2023-03-02T17:25:04.751Z,57.37
2023-03-02T17:30:27.392Z,64.63
2023-03-02T17:35:49.851Z,72.83
2023-03-02T17:41:12.346Z,59.97
2023-03-02T17:46:34.929Z,57.80
2023-03-02T17:51:57.861Z,59.30
2023-03-02T17:57:22.648Z,60.33
2023-03-02T18:02:45.570Z,58.07
2023-03-02T18:08:07.753Z,57.83
2023-03-02T18:13:30.716Z,52.57
2023-03-02T18:18:54.024Z,47.00
2023-03-02T18:24:16.659Z,40.63
2023-03-02T18:29:40.327Z,41.40
2023-03-02T18:35:02.860Z,43.53
2023-03-02T18:40:25.269Z,39.13
2023-03-02T18:45:47.795Z,42.57
2023-03-02T18:51:10.393Z,42.70
2023-03-02T18:56:32.653Z,32.80
2023-03-02T19:01:55.597Z,27.40
2023-03-02T19:07:18.254Z,35.30
2023-03-02T19:12:40.920Z,28.40
2023-03-02T19:18:03.559Z,27.90
2023-03-02T19:23:26.989Z,25.40
2023-03-02T19:28:49.783Z,27.27
2023-03-02T19:34:12.312Z,24.57
2023-03-02T19:39:34.753Z,18.73
2023-03-02T19:44:57.384Z,21.13
2023-03-02T19:50:21.714Z,22.10
2023-03-02T19:55:45.277Z,23.53
2023-03-02T20:01:09.970Z,23.63
2023-03-02T20:06:34.521Z,25.70
2023-03-02T20:11:58.678Z,18.10
2023-03-02T20:17:21.191Z,22.70
2023-03-02T20:22:45.479Z,24.03
2023-03-02T20:28:11.889Z,22.53
2023-03-02T20:33:39.155Z,18.07
2023-03-02T20:39:06.542Z,23.60
2023-03-02T20:44:31.132Z,22.97
2023-03-02T20:49:54.116Z,27.10
2023-03-02T20:55:16.962Z,24.77
2023-03-02T21:00:40.319Z,28.80
2023-03-02T21:06:03.135Z,27.47
2023-03-02T21:11:26.120Z,30.37
2023-03-02T21:16:48.440Z,29.53
2023-03-02T21:22:11.139Z,32.03
2023-03-02T21:27:33.318Z,30.17
2023-03-02T21:32:56.352Z,32.03
2023-03-02T21:38:18.772Z,34.63
2023-03-02T21:43:41.155Z,31.90
2023-03-02T21:49:04.036Z,33.73
2023-03-02T21:54:26.604Z,28.20
2023-03-02T21:59:48.738Z,23.87
2023-03-02T22:05:11.324Z,27.40
2023-03-02T22:10:40.158Z,28.33
2023-03-02T22:16:21.593Z,30.53
2023-03-02T22:21:47.219Z,23.60
2023-03-02T22:27:34.773Z,23.33
2023-03-02T22:32:57.025Z,26.83
2023-03-02T22:38:24.012Z,23.07
2023-03-02T22:43:46.738Z,24.60
2023-03-02T22:49:16.923Z,26.50
2023-03-02T22:54:39.151Z,22.83
2023-03-02T23:00:14.178Z,24.40
2023-03-02T23:05:36.673Z,28.87
2023-03-02T23:11:00.029Z,27.37
2023-03-02T23:16:25.798Z,30.43
2023-03-02T23:21:50.726Z,27.27
2023-03-02T23:27:13.010Z,29.47
2023-03-02T23:32:36.668Z,24.77
2023-03-02T23:38:01.458Z,32.57
2023-03-02T23:43:24.073Z,32.97
2023-03-02T23:48:47.886Z,33.03
2023-03-02T23:54:11.039Z,33.27
2023-03-02T23:59:33.540Z,33.50
